sensor_id;sensor_type;location;lat;lon;timestamp;temperature;humidity
32293;DHT22;43233;48.608;8.838;2023-11-22T00:00:08;7.60;81.30
32293;DHT22;43233;48.608;8.838;2023-11-22T00:02:35;7.70;81.40
32293;DHT22;43233;48.608;8.838;2023-11-22T00:05:01;7.60;81.10
32293;DHT22;43233;48.608;8.838;2023-11-22T00:07:26;7.70;81.20
32293;DHT22;43233;48.608;8.838;2023-11-22T00:09:55;7.60;81.30
32293;DHT22;43233;48.608;8.838;2023-11-22T00:12:21;7.60;81.20
32293;DHT22;43233;48.608;8.838;2023-11-22T00:14:48;7.60;81.30
32293;DHT22;43233;48.608;8.838;2023-11-22T00:17:14;7.60;81.30
32293;DHT22;43233;48.608;8.838;2023-11-22T00:19:40;7.60;81.40
32293;DHT22;43233;48.608;8.838;2023-11-22T00:22:05;7.60;81.30
32293;DHT22;43233;48.608;8.838;2023-11-22T00:24:39;7.60;81.40
32293;DHT22;43233;48.608;8.838;2023-11-22T00:27:04;7.60;81.50
32293;DHT22;43233;48.608;8.838;2023-11-22T00:29:30;7.60;81.50
32293;DHT22;43233;48.608;8.838;2023-11-22T00:31:56;7.60;81.50
32293;DHT22;43233;48.608;8.838;2023-11-22T00:34:21;7.60;81.70
32293;DHT22;43233;48.608;8.838;2023-11-22T00:36:48;7.60;81.50
32293;DHT22;43233;48.608;8.838;2023-11-22T00:39:14;7.60;81.30
32293;DHT22;43233;48.608;8.838;2023-11-22T00:41:40;7.60;81.50
32293;DHT22;43233;48.608;8.838;2023-11-22T00:44:06;7.60;81.60
32293;DHT22;43233;48.608;8.838;2023-11-22T00:46:32;7.60;81.60
32293;DHT22;43233;48.608;8.838;2023-11-22T00:48:58;7.60;81.40
32293;DHT22;43233;48.608;8.838;2023-11-22T00:51:24;7.60;81.50
32293;DHT22;43233;48.608;8.838;2023-11-22T00:53:49;7.60;81.10
32293;DHT22;43233;48.608;8.838;2023-11-22T00:56:16;7.50;78.80
32293;DHT22;43233;48.608;8.838;2023-11-22T00:58:42;7.50;78.70
32293;DHT22;43233;48.608;8.838;2023-11-22T01:01:08;7.40;77.70
32293;DHT22;43233;48.608;8.838;2023-11-22T01:03:34;7.30;76.20
32293;DHT22;43233;48.608;8.838;2023-11-22T01:06:00;7.20;76.00
32293;DHT22;43233;48.608;8.838;2023-11-22T01:08:26;7.10;75.40
32293;DHT22;43233;48.608;8.838;2023-11-22T01:10:52;7.10;74.40
32293;DHT22;43233;48.608;8.838;2023-11-22T01:13:17;7.00;74.40
32293;DHT22;43233;48.608;8.838;2023-11-22T01:15:43;6.90;74.30
32293;DHT22;43233;48.608;8.838;2023-11-22T01:18:10;6.90;74.20
32293;DHT22;43233;48.608;8.838;2023-11-22T01:20:36;6.80;73.90
32293;DHT22;43233;48.608;8.838;2023-11-22T01:23:01;6.80;74.30
32293;DHT22;43233;48.608;8.838;2023-11-22T01:25:27;6.70;74.00
32293;DHT22;43233;48.608;8.838;2023-11-22T01:27:53;6.70;73.40
32293;DHT22;43233;48.608;8.838;2023-11-22T01:30:19;6.60;73.50
32293;DHT22;43233;48.608;8.838;2023-11-22T01:32:45;6.60;72.80
32293;DHT22;43233;48.608;8.838;2023-11-22T01:35:10;6.50;73.50
32293;DHT22;43233;48.608;8.838;2023-11-22T01:37:36;6.50;73.40
32293;DHT22;43233;48.608;8.838;2023-11-22T01:40:02;6.50;73.80
32293;DHT22;43233;48.608;8.838;2023-11-22T01:42:29;6.40;73.60
32293;DHT22;43233;48.608;8.838;2023-11-22T01:44:54;6.40;74.20
32293;DHT22;43233;48.608;8.838;2023-11-22T01:47:21;6.40;74.50
32293;DHT22;43233;48.608;8.838;2023-11-22T01:49:46;6.30;74.60
32293;DHT22;43233;48.608;8.838;2023-11-22T01:52:12;6.30;74.20
32293;DHT22;43233;48.608;8.838;2023-11-22T01:54:38;6.30;73.30
32293;DHT22;43233;48.608;8.838;2023-11-22T01:57:05;6.20;73.40
32293;DHT22;43233;48.608;8.838;2023-11-22T01:59:33;6.20;73.00
32293;DHT22;43233;48.608;8.838;2023-11-22T02:01:59;6.10;72.00
32293;DHT22;43233;48.608;8.838;2023-11-22T02:04:25;6.00;71.90
32293;DHT22;43233;48.608;8.838;2023-11-22T02:06:51;6.00;72.00
32293;DHT22;43233;48.608;8.838;2023-11-22T02:09:16;6.00;71.50
32293;DHT22;43233;48.608;8.838;2023-11-22T02:11:43;5.90;71.60
32293;DHT22;43233;48.608;8.838;2023-11-22T02:14:13;5.90;71.60
32293;DHT22;43233;48.608;8.838;2023-11-22T02:16:39;5.90;71.50
32293;DHT22;43233;48.608;8.838;2023-11-22T02:19:06;5.90;71.60
32293;DHT22;43233;48.608;8.838;2023-11-22T02:21:33;5.80;71.60
32293;DHT22;43233;48.608;8.838;2023-11-22T02:23:59;5.80;71.70
32293;DHT22;43233;48.608;8.838;2023-11-22T02:26:24;5.80;71.70
32293;DHT22;43233;48.608;8.838;2023-11-22T02:28:50;5.70;72.00
32293;DHT22;43233;48.608;8.838;2023-11-22T02:31:16;5.70;71.90
32293;DHT22;43233;48.608;8.838;2023-11-22T02:33:42;5.70;72.10
32293;DHT22;43233;48.608;8.838;2023-11-22T02:36:09;5.70;72.10
32293;DHT22;43233;48.608;8.838;2023-11-22T02:38:37;5.70;72.20
32293;DHT22;43233;48.608;8.838;2023-11-22T02:41:03;5.70;72.00
32293;DHT22;43233;48.608;8.838;2023-11-22T02:43:30;5.60;71.80
32293;DHT22;43233;48.608;8.838;2023-11-22T02:45:56;5.60;72.60
32293;DHT22;43233;48.608;8.838;2023-11-22T02:48:21;5.50;71.90
32293;DHT22;43233;48.608;8.838;2023-11-22T02:50:48;5.50;72.10
32293;DHT22;43233;48.608;8.838;2023-11-22T02:53:14;5.50;72.00
32293;DHT22;43233;48.608;8.838;2023-11-22T02:55:40;5.50;71.60
32293;DHT22;43233;48.608;8.838;2023-11-22T02:58:06;5.50;71.50
32293;DHT22;43233;48.608;8.838;2023-11-22T03:00:32;5.40;71.50
32293;DHT22;43233;48.608;8.838;2023-11-22T03:03:00;5.40;71.20
32293;DHT22;43233;48.608;8.838;2023-11-22T03:05:25;5.40;70.70
32293;DHT22;43233;48.608;8.838;2023-11-22T03:07:51;5.30;70.50
32293;DHT22;43233;48.608;8.838;2023-11-22T03:10:17;5.30;70.00
32293;DHT22;43233;48.608;8.838;2023-11-22T03:12:46;5.30;69.40
32293;DHT22;43233;48.608;8.838;2023-11-22T03:15:11;5.20;69.00
32293;DHT22;43233;48.608;8.838;2023-11-22T03:17:37;5.20;69.10
32293;DHT22;43233;48.608;8.838;2023-11-22T03:20:04;5.10;68.60
32293;DHT22;43233;48.608;8.838;2023-11-22T03:22:34;5.10;68.50
32293;DHT22;43233;48.608;8.838;2023-11-22T03:25:02;5.00;68.40
32293;DHT22;43233;48.608;8.838;2023-11-22T03:27:28;5.00;67.90
32293;DHT22;43233;48.608;8.838;2023-11-22T03:29:53;4.90;67.60
32293;DHT22;43233;48.608;8.838;2023-11-22T03:32:19;4.80;67.10
32293;DHT22;43233;48.608;8.838;2023-11-22T03:34:44;4.80;67.30
32293;DHT22;43233;48.608;8.838;2023-11-22T03:37:10;4.70;67.50
32293;DHT22;43233;48.608;8.838;2023-11-22T03:39:36;4.70;67.50
32293;DHT22;43233;48.608;8.838;2023-11-22T03:42:02;4.70;67.40
32293;DHT22;43233;48.608;8.838;2023-11-22T03:44:27;4.70;67.70
32293;DHT22;43233;48.608;8.838;2023-11-22T03:46:54;4.60;67.70
32293;DHT22;43233;48.608;8.838;2023-11-22T03:49:19;4.60;68.00
32293;DHT22;43233;48.608;8.838;2023-11-22T03:51:46;4.60;68.40
32293;DHT22;43233;48.608;8.838;2023-11-22T03:54:12;4.60;68.40
32293;DHT22;43233;48.608;8.838;2023-11-22T03:56:38;4.50;68.70
32293;DHT22;43233;48.608;8.838;2023-11-22T03:59:03;4.50;69.00
32293;DHT22;43233;48.608;8.838;2023-11-22T04:01:29;4.50;70.00
32293;DHT22;43233;48.608;8.838;2023-11-22T04:03:56;4.50;69.20
32293;DHT22;43233;48.608;8.838;2023-11-22T04:06:21;4.40;69.10
32293;DHT22;43233;48.608;8.838;2023-11-22T04:08:48;4.40;69.10
32293;DHT22;43233;48.608;8.838;2023-11-22T04:11:14;4.40;69.00
32293;DHT22;43233;48.608;8.838;2023-11-22T04:13:40;4.40;68.90
32293;DHT22;43233;48.608;8.838;2023-11-22T04:16:10;4.30;68.90
32293;DHT22;43233;48.608;8.838;2023-11-22T04:18:39;4.30;69.00
32293;DHT22;43233;48.608;8.838;2023-11-22T04:21:05;4.30;68.90
32293;DHT22;43233;48.608;8.838;2023-11-22T04:23:32;4.30;68.80
32293;DHT22;43233;48.608;8.838;2023-11-22T04:25:58;4.30;69.00
32293;DHT22;43233;48.608;8.838;2023-11-22T04:28:24;4.30;69.20
32293;DHT22;43233;48.608;8.838;2023-11-22T04:30:51;4.30;69.10
32293;DHT22;43233;48.608;8.838;2023-11-22T04:33:17;4.20;69.00
32293;DHT22;43233;48.608;8.838;2023-11-22T04:35:43;4.20;69.40
32293;DHT22;43233;48.608;8.838;2023-11-22T04:38:09;4.20;69.70
32293;DHT22;43233;48.608;8.838;2023-11-22T04:40:34;4.10;70.10
32293;DHT22;43233;48.608;8.838;2023-11-22T04:43:00;4.10;70.20
32293;DHT22;43233;48.608;8.838;2023-11-22T04:45:25;4.10;70.60
32293;DHT22;43233;48.608;8.838;2023-11-22T04:47:51;4.10;71.80
32293;DHT22;43233;48.608;8.838;2023-11-22T04:50:17;4.10;71.10
32293;DHT22;43233;48.608;8.838;2023-11-22T04:52:43;4.10;71.10
32293;DHT22;43233;48.608;8.838;2023-11-22T04:55:09;4.10;71.10
32293;DHT22;43233;48.608;8.838;2023-11-22T04:57:34;4.10;71.40
32293;DHT22;43233;48.608;8.838;2023-11-22T05:00:00;4.10;72.20
32293;DHT22;43233;48.608;8.838;2023-11-22T05:02:26;4.10;71.40
32293;DHT22;43233;48.608;8.838;2023-11-22T05:04:53;4.10;71.40
32293;DHT22;43233;48.608;8.838;2023-11-22T05:07:18;4.10;71.30
32293;DHT22;43233;48.608;8.838;2023-11-22T05:09:47;4.10;72.30
32293;DHT22;43233;48.608;8.838;2023-11-22T05:12:13;4.10;71.50
32293;DHT22;43233;48.608;8.838;2023-11-22T05:14:40;4.10;71.30
32293;DHT22;43233;48.608;8.838;2023-11-22T05:17:06;4.10;71.40
32293;DHT22;43233;48.608;8.838;2023-11-22T05:19:31;4.10;71.10
32293;DHT22;43233;48.608;8.838;2023-11-22T05:21:57;4.10;70.80
32293;DHT22;43233;48.608;8.838;2023-11-22T05:24:23;4.10;70.40
32293;DHT22;43233;48.608;8.838;2023-11-22T05:26:49;4.10;70.20
32293;DHT22;43233;48.608;8.838;2023-11-22T05:29:15;4.10;69.40
32293;DHT22;43233;48.608;8.838;2023-11-22T05:31:40;4.10;69.70
32293;DHT22;43233;48.608;8.838;2023-11-22T05:34:06;4.00;69.20
32293;DHT22;43233;48.608;8.838;2023-11-22T05:36:32;4.00;68.70
32293;DHT22;43233;48.608;8.838;2023-11-22T05:38:58;4.00;68.70
32293;DHT22;43233;48.608;8.838;2023-11-22T05:41:26;4.00;68.50
32293;DHT22;43233;48.608;8.838;2023-11-22T05:43:55;4.00;68.20
32293;DHT22;43233;48.608;8.838;2023-11-22T05:46:21;4.00;68.40
32293;DHT22;43233;48.608;8.838;2023-11-22T05:48:48;3.90;68.30
32293;DHT22;43233;48.608;8.838;2023-11-22T05:51:15;3.90;68.20
32293;DHT22;43233;48.608;8.838;2023-11-22T05:53:42;3.90;68.20
32293;DHT22;43233;48.608;8.838;2023-11-22T05:56:08;3.90;68.10
32293;DHT22;43233;48.608;8.838;2023-11-22T05:58:34;3.90;68.10
32293;DHT22;43233;48.608;8.838;2023-11-22T06:01:04;3.90;68.30
32293;DHT22;43233;48.608;8.838;2023-11-22T06:03:29;3.90;68.10
32293;DHT22;43233;48.608;8.838;2023-11-22T06:05:55;3.90;67.90
32293;DHT22;43233;48.608;8.838;2023-11-22T06:08:23;3.80;67.90
32293;DHT22;43233;48.608;8.838;2023-11-22T06:10:48;3.90;68.10
32293;DHT22;43233;48.608;8.838;2023-11-22T06:13:14;3.90;68.10
32293;DHT22;43233;48.608;8.838;2023-11-22T06:15:40;3.80;67.60
32293;DHT22;43233;48.608;8.838;2023-11-22T06:18:06;3.80;67.40
32293;DHT22;43233;48.608;8.838;2023-11-22T06:20:31;3.80;67.60
32293;DHT22;43233;48.608;8.838;2023-11-22T06:22:57;3.80;67.00
32293;DHT22;43233;48.608;8.838;2023-11-22T06:25:23;3.80;67.20
32293;DHT22;43233;48.608;8.838;2023-11-22T06:27:49;3.80;67.30
32293;DHT22;43233;48.608;8.838;2023-11-22T06:30:14;3.80;67.40
32293;DHT22;43233;48.608;8.838;2023-11-22T06:32:40;3.80;67.60
32293;DHT22;43233;48.608;8.838;2023-11-22T06:35:08;3.80;67.40
32293;DHT22;43233;48.608;8.838;2023-11-22T06:37:35;3.70;67.50
32293;DHT22;43233;48.608;8.838;2023-11-22T06:40:00;3.70;67.50
32293;DHT22;43233;48.608;8.838;2023-11-22T06:42:26;3.80;67.40
32293;DHT22;43233;48.608;8.838;2023-11-22T06:44:52;3.70;67.20
32293;DHT22;43233;48.608;8.838;2023-11-22T06:47:19;3.80;67.00
32293;DHT22;43233;48.608;8.838;2023-11-22T06:49:45;3.80;66.80
32293;DHT22;43233;48.608;8.838;2023-11-22T06:52:10;3.70;66.70
32293;DHT22;43233;48.608;8.838;2023-11-22T06:54:36;3.70;66.80
32293;DHT22;43233;48.608;8.838;2023-11-22T06:57:02;3.70;66.80
32293;DHT22;43233;48.608;8.838;2023-11-22T06:59:28;3.70;67.40
32293;DHT22;43233;48.608;8.838;2023-11-22T07:01:54;3.60;66.50
32293;DHT22;43233;48.608;8.838;2023-11-22T07:04:21;3.60;66.50
32293;DHT22;43233;48.608;8.838;2023-11-22T07:06:48;3.60;66.80
32293;DHT22;43233;48.608;8.838;2023-11-22T07:09:14;3.60;66.90
32293;DHT22;43233;48.608;8.838;2023-11-22T07:11:40;3.60;66.90
32293;DHT22;43233;48.608;8.838;2023-11-22T07:14:05;3.60;67.00
32293;DHT22;43233;48.608;8.838;2023-11-22T07:16:32;3.60;67.10
32293;DHT22;43233;48.608;8.838;2023-11-22T07:18:59;3.60;67.10
32293;DHT22;43233;48.608;8.838;2023-11-22T07:21:25;3.60;67.30
32293;DHT22;43233;48.608;8.838;2023-11-22T07:23:51;3.60;67.30
32293;DHT22;43233;48.608;8.838;2023-11-22T07:26:17;3.60;67.40
32293;DHT22;43233;48.608;8.838;2023-11-22T07:28:43;3.60;67.30
32293;DHT22;43233;48.608;8.838;2023-11-22T07:31:09;3.60;67.50
32293;DHT22;43233;48.608;8.838;2023-11-22T07:33:35;3.60;67.30
32293;DHT22;43233;48.608;8.838;2023-11-22T07:36:01;3.60;67.50
32293;DHT22;43233;48.608;8.838;2023-11-22T07:38:28;3.60;67.80
32293;DHT22;43233;48.608;8.838;2023-11-22T07:40:54;3.60;67.40
32293;DHT22;43233;48.608;8.838;2023-11-22T07:43:21;3.60;66.90
32293;DHT22;43233;48.608;8.838;2023-11-22T07:45:47;3.60;67.10
32293;DHT22;43233;48.608;8.838;2023-11-22T07:48:14;3.60;67.30
32293;DHT22;43233;48.608;8.838;2023-11-22T07:50:40;3.60;67.50
32293;DHT22;43233;48.608;8.838;2023-11-22T07:53:12;3.60;67.40
32293;DHT22;43233;48.608;8.838;2023-11-22T07:55:38;3.70;67.60
32293;DHT22;43233;48.608;8.838;2023-11-22T07:58:04;3.60;67.60
32293;DHT22;43233;48.608;8.838;2023-11-22T08:00:33;3.60;67.50
32293;DHT22;43233;48.608;8.838;2023-11-22T08:03:07;3.60;67.50
32293;DHT22;43233;48.608;8.838;2023-11-22T08:05:33;3.70;67.70
32293;DHT22;43233;48.608;8.838;2023-11-22T08:08:04;3.60;67.50
32293;DHT22;43233;48.608;8.838;2023-11-22T08:10:34;3.70;67.70
32293;DHT22;43233;48.608;8.838;2023-11-22T08:13:00;3.70;67.80
32293;DHT22;43233;48.608;8.838;2023-11-22T08:15:27;3.70;67.80
32293;DHT22;43233;48.608;8.838;2023-11-22T08:17:53;3.70;67.70
32293;DHT22;43233;48.608;8.838;2023-11-22T08:20:19;3.70;67.40
32293;DHT22;43233;48.608;8.838;2023-11-22T08:22:45;3.70;67.20
32293;DHT22;43233;48.608;8.838;2023-11-22T08:25:11;3.70;67.50
32293;DHT22;43233;48.608;8.838;2023-11-22T08:27:41;3.70;67.30
32293;DHT22;43233;48.608;8.838;2023-11-22T08:30:10;3.70;67.10
32293;DHT22;43233;48.608;8.838;2023-11-22T08:32:41;3.70;67.20
32293;DHT22;43233;48.608;8.838;2023-11-22T08:35:08;3.80;66.90
32293;DHT22;43233;48.608;8.838;2023-11-22T08:37:35;3.70;66.70
32293;DHT22;43233;48.608;8.838;2023-11-22T08:40:04;3.70;66.50
32293;DHT22;43233;48.608;8.838;2023-11-22T08:42:30;3.70;66.30
32293;DHT22;43233;48.608;8.838;2023-11-22T08:44:56;3.70;66.20
32293;DHT22;43233;48.608;8.838;2023-11-22T08:47:21;3.70;66.10
32293;DHT22;43233;48.608;8.838;2023-11-22T08:49:47;3.70;66.20
32293;DHT22;43233;48.608;8.838;2023-11-22T08:52:14;3.70;66.10
32293;DHT22;43233;48.608;8.838;2023-11-22T08:54:39;3.70;65.80
32293;DHT22;43233;48.608;8.838;2023-11-22T08:57:06;3.70;65.30
32293;DHT22;43233;48.608;8.838;2023-11-22T08:59:32;3.70;65.50
32293;DHT22;43233;48.608;8.838;2023-11-22T09:02:04;3.70;65.10
32293;DHT22;43233;48.608;8.838;2023-11-22T09:04:30;3.70;65.20
32293;DHT22;43233;48.608;8.838;2023-11-22T09:06:57;3.70;64.40
32293;DHT22;43233;48.608;8.838;2023-11-22T09:09:23;3.70;64.00
32293;DHT22;43233;48.608;8.838;2023-11-22T09:11:59;3.70;64.60
32293;DHT22;43233;48.608;8.838;2023-11-22T09:14:25;3.70;64.20
32293;DHT22;43233;48.608;8.838;2023-11-22T09:16:51;3.60;63.90
32293;DHT22;43233;48.608;8.838;2023-11-22T09:19:24;3.70;64.10
32293;DHT22;43233;48.608;8.838;2023-11-22T09:21:50;3.70;64.00
32293;DHT22;43233;48.608;8.838;2023-11-22T09:24:16;3.70;63.90
32293;DHT22;43233;48.608;8.838;2023-11-22T09:26:42;3.70;63.70
32293;DHT22;43233;48.608;8.838;2023-11-22T09:29:09;3.70;63.80
32293;DHT22;43233;48.608;8.838;2023-11-22T09:31:37;3.70;63.30
32293;DHT22;43233;48.608;8.838;2023-11-22T09:34:02;3.70;63.70
32293;DHT22;43233;48.608;8.838;2023-11-22T09:36:29;3.70;64.60
32293;DHT22;43233;48.608;8.838;2023-11-22T09:38:57;3.70;63.40
32293;DHT22;43233;48.608;8.838;2023-11-22T09:41:23;3.70;63.50
32293;DHT22;43233;48.608;8.838;2023-11-22T09:43:50;3.80;63.70
32293;DHT22;43233;48.608;8.838;2023-11-22T09:46:17;3.80;63.60
32293;DHT22;43233;48.608;8.838;2023-11-22T09:48:47;3.80;63.70
32293;DHT22;43233;48.608;8.838;2023-11-22T09:51:27;3.80;63.50
32293;DHT22;43233;48.608;8.838;2023-11-22T09:53:58;3.80;63.10
32293;DHT22;43233;48.608;8.838;2023-11-22T09:56:26;3.80;63.10
32293;DHT22;43233;48.608;8.838;2023-11-22T09:58:54;3.80;63.30
32293;DHT22;43233;48.608;8.838;2023-11-22T10:01:21;3.80;63.10
32293;DHT22;43233;48.608;8.838;2023-11-22T10:03:48;3.90;63.20
32293;DHT22;43233;48.608;8.838;2023-11-22T10:06:13;3.90;63.90
32293;DHT22;43233;48.608;8.838;2023-11-22T10:08:40;3.90;63.00
32293;DHT22;43233;48.608;8.838;2023-11-22T10:11:07;3.90;63.00
32293;DHT22;43233;48.608;8.838;2023-11-22T10:13:33;3.90;61.90
32293;DHT22;43233;48.608;8.838;2023-11-22T10:16:10;3.90;62.30
32293;DHT22;43233;48.608;8.838;2023-11-22T10:18:40;4.00;62.10
32293;DHT22;43233;48.608;8.838;2023-11-22T10:23:47;4.00;61.80
32293;DHT22;43233;48.608;8.838;2023-11-22T10:26:17;4.00;61.20
32293;DHT22;43233;48.608;8.838;2023-11-22T10:28:43;4.00;61.60
32293;DHT22;43233;48.608;8.838;2023-11-22T10:31:09;4.00;61.20
32293;DHT22;43233;48.608;8.838;2023-11-22T10:33:42;4.00;61.00
32293;DHT22;43233;48.608;8.838;2023-11-22T10:36:08;4.00;60.70
32293;DHT22;43233;48.608;8.838;2023-11-22T10:38:34;4.00;61.10
32293;DHT22;43233;48.608;8.838;2023-11-22T10:41:09;4.00;62.20
32293;DHT22;43233;48.608;8.838;2023-11-22T10:43:35;4.00;61.40
32293;DHT22;43233;48.608;8.838;2023-11-22T10:46:03;4.00;61.10
32293;DHT22;43233;48.608;8.838;2023-11-22T10:48:30;4.00;61.20
32293;DHT22;43233;48.608;8.838;2023-11-22T10:50:57;4.00;61.20
32293;DHT22;43233;48.608;8.838;2023-11-22T10:53:34;4.00;60.90
32293;DHT22;43233;48.608;8.838;2023-11-22T10:56:09;4.00;61.10
32293;DHT22;43233;48.608;8.838;2023-11-22T10:58:42;4.00;61.10
32293;DHT22;43233;48.608;8.838;2023-11-22T11:01:09;4.00;60.90
32293;DHT22;43233;48.608;8.838;2023-11-22T11:03:37;4.00;60.80
32293;DHT22;43233;48.608;8.838;2023-11-22T11:06:08;4.00;60.90
32293;DHT22;43233;48.608;8.838;2023-11-22T11:08:37;4.00;61.00
32293;DHT22;43233;48.608;8.838;2023-11-22T11:11:04;4.00;61.30
32293;DHT22;43233;48.608;8.838;2023-11-22T11:13:31;4.00;61.00
32293;DHT22;43233;48.608;8.838;2023-11-22T11:15:57;4.00;60.70
32293;DHT22;43233;48.608;8.838;2023-11-22T11:18:24;3.90;61.20
32293;DHT22;43233;48.608;8.838;2023-11-22T11:20:57;3.90;61.50
32293;DHT22;43233;48.608;8.838;2023-11-22T11:23:25;3.90;61.20
32293;DHT22;43233;48.608;8.838;2023-11-22T11:25:56;3.90;61.40
32293;DHT22;43233;48.608;8.838;2023-11-22T11:28:23;3.90;61.20
32293;DHT22;43233;48.608;8.838;2023-11-22T11:30:52;3.90;61.20
32293;DHT22;43233;48.608;8.838;2023-11-22T11:36:22;3.90;61.80
32293;DHT22;43233;48.608;8.838;2023-11-22T11:38:50;3.90;61.30
32293;DHT22;43233;48.608;8.838;2023-11-22T11:41:16;3.90;61.40
32293;DHT22;43233;48.608;8.838;2023-11-22T11:43:49;3.90;61.30
32293;DHT22;43233;48.608;8.838;2023-11-22T11:46:15;3.90;61.20
32293;DHT22;43233;48.608;8.838;2023-11-22T11:48:45;3.90;61.50
32293;DHT22;43233;48.608;8.838;2023-11-22T11:51:16;3.90;61.50
32293;DHT22;43233;48.608;8.838;2023-11-22T11:53:43;3.90;61.50
32293;DHT22;43233;48.608;8.838;2023-11-22T11:56:09;3.80;61.40
32293;DHT22;43233;48.608;8.838;2023-11-22T11:58:35;3.80;61.30
32293;DHT22;43233;48.608;8.838;2023-11-22T12:01:00;3.80;61.50
32293;DHT22;43233;48.608;8.838;2023-11-22T12:03:28;3.80;61.50
32293;DHT22;43233;48.608;8.838;2023-11-22T12:05:53;3.80;61.60
32293;DHT22;43233;48.608;8.838;2023-11-22T12:08:19;3.80;61.60
32293;DHT22;43233;48.608;8.838;2023-11-22T12:10:45;3.80;61.80
32293;DHT22;43233;48.608;8.838;2023-11-22T12:13:18;3.80;61.50
32293;DHT22;43233;48.608;8.838;2023-11-22T12:15:44;3.70;61.70
32293;DHT22;43233;48.608;8.838;2023-11-22T12:18:09;3.80;61.90
32293;DHT22;43233;48.608;8.838;2023-11-22T12:20:38;3.70;61.60
32293;DHT22;43233;48.608;8.838;2023-11-22T12:23:03;3.80;61.40
32293;DHT22;43233;48.608;8.838;2023-11-22T12:25:30;3.80;61.70
32293;DHT22;43233;48.608;8.838;2023-11-22T12:27:56;3.70;61.60
32293;DHT22;43233;48.608;8.838;2023-11-22T12:30:33;3.70;61.50
32293;DHT22;43233;48.608;8.838;2023-11-22T12:33:05;3.70;61.30
32293;DHT22;43233;48.608;8.838;2023-11-22T12:35:33;3.70;61.30
32293;DHT22;43233;48.608;8.838;2023-11-22T12:38:04;3.70;61.50
32293;DHT22;43233;48.608;8.838;2023-11-22T12:40:32;3.70;61.40
32293;DHT22;43233;48.608;8.838;2023-11-22T12:42:59;3.70;61.70
32293;DHT22;43233;48.608;8.838;2023-11-22T12:45:27;3.70;62.00
32293;DHT22;43233;48.608;8.838;2023-11-22T12:47:54;3.70;61.90
32293;DHT22;43233;48.608;8.838;2023-11-22T12:53:02;3.70;61.70
32293;DHT22;43233;48.608;8.838;2023-11-22T12:55:32;3.70;61.70
32293;DHT22;43233;48.608;8.838;2023-11-22T12:57:58;3.70;61.80
32293;DHT22;43233;48.608;8.838;2023-11-22T13:00:26;3.70;61.80
32293;DHT22;43233;48.608;8.838;2023-11-22T13:02:57;3.70;61.70
32293;DHT22;43233;48.608;8.838;2023-11-22T13:05:23;3.70;61.70
32293;DHT22;43233;48.608;8.838;2023-11-22T13:07:49;3.70;61.40
32293;DHT22;43233;48.608;8.838;2023-11-22T13:10:15;3.70;61.50
32293;DHT22;43233;48.608;8.838;2023-11-22T13:12:43;3.70;61.60
32293;DHT22;43233;48.608;8.838;2023-11-22T13:15:10;3.70;61.40
32293;DHT22;43233;48.608;8.838;2023-11-22T13:17:39;3.70;61.30
32293;DHT22;43233;48.608;8.838;2023-11-22T13:20:08;3.70;61.10
32293;DHT22;43233;48.608;8.838;2023-11-22T13:22:41;3.70;61.20
32293;DHT22;43233;48.608;8.838;2023-11-22T13:25:08;3.70;61.20
32293;DHT22;43233;48.608;8.838;2023-11-22T13:27:36;3.70;61.20
32293;DHT22;43233;48.608;8.838;2023-11-22T13:30:02;3.60;61.40
32293;DHT22;43233;48.608;8.838;2023-11-22T13:32:30;3.60;61.00
32293;DHT22;43233;48.608;8.838;2023-11-22T13:34:55;3.60;60.70
32293;DHT22;43233;48.608;8.838;2023-11-22T13:37:25;3.60;60.80
32293;DHT22;43233;48.608;8.838;2023-11-22T13:39:52;3.60;60.90
32293;DHT22;43233;48.608;8.838;2023-11-22T13:42:18;3.60;61.00
32293;DHT22;43233;48.608;8.838;2023-11-22T13:44:43;3.60;61.10
32293;DHT22;43233;48.608;8.838;2023-11-22T13:47:10;3.50;60.90
32293;DHT22;43233;48.608;8.838;2023-11-22T13:49:36;3.60;60.70
32293;DHT22;43233;48.608;8.838;2023-11-22T13:52:02;3.60;60.70
32293;DHT22;43233;48.608;8.838;2023-11-22T13:54:28;3.60;60.60
32293;DHT22;43233;48.608;8.838;2023-11-22T13:56:54;3.50;60.50
32293;DHT22;43233;48.608;8.838;2023-11-22T13:59:19;3.50;60.50
32293;DHT22;43233;48.608;8.838;2023-11-22T14:01:45;3.50;60.50
32293;DHT22;43233;48.608;8.838;2023-11-22T14:04:11;3.50;60.50
32293;DHT22;43233;48.608;8.838;2023-11-22T14:06:37;3.50;60.20
32293;DHT22;43233;48.608;8.838;2023-11-22T14:09:02;3.50;60.30
32293;DHT22;43233;48.608;8.838;2023-11-22T14:11:28;3.50;60.10
32293;DHT22;43233;48.608;8.838;2023-11-22T14:13:55;3.40;60.20
32293;DHT22;43233;48.608;8.838;2023-11-22T14:16:20;3.40;59.90
32293;DHT22;43233;48.608;8.838;2023-11-22T14:18:46;3.40;60.00
32293;DHT22;43233;48.608;8.838;2023-11-22T14:21:12;3.40;60.00
32293;DHT22;43233;48.608;8.838;2023-11-22T14:23:38;3.40;60.00
32293;DHT22;43233;48.608;8.838;2023-11-22T14:26:03;3.40;60.00
32293;DHT22;43233;48.608;8.838;2023-11-22T14:28:29;3.40;60.10
32293;DHT22;43233;48.608;8.838;2023-11-22T14:30:55;3.40;60.00
32293;DHT22;43233;48.608;8.838;2023-11-22T14:33:21;3.40;60.00
32293;DHT22;43233;48.608;8.838;2023-11-22T14:35:47;3.40;59.80
32293;DHT22;43233;48.608;8.838;2023-11-22T14:38:12;3.40;59.80
32293;DHT22;43233;48.608;8.838;2023-11-22T14:40:39;3.40;59.70
32293;DHT22;43233;48.608;8.838;2023-11-22T14:43:06;3.30;59.70
32293;DHT22;43233;48.608;8.838;2023-11-22T14:45:32;3.30;59.60
32293;DHT22;43233;48.608;8.838;2023-11-22T14:47:58;3.30;59.50
32293;DHT22;43233;48.608;8.838;2023-11-22T14:50:24;3.30;59.50
32293;DHT22;43233;48.608;8.838;2023-11-22T14:52:54;3.30;59.60
32293;DHT22;43233;48.608;8.838;2023-11-22T14:55:20;3.30;59.80
32293;DHT22;43233;48.608;8.838;2023-11-22T14:57:48;3.30;60.00
32293;DHT22;43233;48.608;8.838;2023-11-22T15:00:15;3.30;59.80
32293;DHT22;43233;48.608;8.838;2023-11-22T15:02:42;3.30;59.80
32293;DHT22;43233;48.608;8.838;2023-11-22T15:05:15;3.30;59.30
32293;DHT22;43233;48.608;8.838;2023-11-22T15:07:40;3.30;59.00
32293;DHT22;43233;48.608;8.838;2023-11-22T15:10:10;3.20;59.00
32293;DHT22;43233;48.608;8.838;2023-11-22T15:12:37;3.20;58.90
32293;DHT22;43233;48.608;8.838;2023-11-22T15:15:03;3.20;58.00
32293;DHT22;43233;48.608;8.838;2023-11-22T15:17:28;3.20;57.40
32293;DHT22;43233;48.608;8.838;2023-11-22T15:19:54;3.10;57.40
32293;DHT22;43233;48.608;8.838;2023-11-22T15:22:20;3.00;56.50
32293;DHT22;43233;48.608;8.838;2023-11-22T15:24:46;3.00;57.40
32293;DHT22;43233;48.608;8.838;2023-11-22T15:27:12;3.00;58.10
32293;DHT22;43233;48.608;8.838;2023-11-22T15:29:37;3.00;58.30
32293;DHT22;43233;48.608;8.838;2023-11-22T15:32:03;3.00;58.00
32293;DHT22;43233;48.608;8.838;2023-11-22T15:34:30;3.00;57.40
32293;DHT22;43233;48.608;8.838;2023-11-22T15:36:55;3.00;57.80
32293;DHT22;43233;48.608;8.838;2023-11-22T15:39:21;3.00;56.40
32293;DHT22;43233;48.608;8.838;2023-11-22T15:41:47;3.00;56.60
32293;DHT22;43233;48.608;8.838;2023-11-22T15:44:14;3.00;55.80
32293;DHT22;43233;48.608;8.838;2023-11-22T15:46:43;3.00;55.20
32293;DHT22;43233;48.608;8.838;2023-11-22T15:49:09;3.00;55.40